South Portland, Maine
Current Conditions -  °F | °C
As of 12:51 AM on Sunday 26 Oct 2014 (Local Time) from KPWM Reporting Station
Few Clouds Few Clouds  
Wind Chill: 52°   Ceiling: Unl
Heat Index: 52°   Visibility: 10mi
Dew Point: 47°   Wind: 5mph
Humidity: 83%   Direction: 220°SW
Pressure: 29.43"   Gusts: NA
Location:  43.64°N, 70.25°W
Report Text: KPWM 260451Z AUTO 22004KT 10SM FEW100 11/08 A2943 RMK AO2 SLP965 T01110083 401890056
Loading
Personal Weather Stations






























Interactive Weather Map
Tropical Storm Tracking
New forecast layout! Learn more

10-Day Weather Forecast

Advertisements
Track Severe Weather on mobile